This is the latest recevied weather packets stored in our database for station/object F4JFI-13. If no packets are shown the sender has not sent any weather packets the latest 1 day(s).
| Time | Temp. | Humidity | Pressure | Rain* | Wind** | Luminosity | Snow |
|---|---|---|---|---|---|---|---|
| 1777982528 | 13.33° C | 90% | 1009.6 hPa | - | 0.45 m/s, 188° | - | - |
| 1777981928 | 13.33° C | 88% | 1009.6 hPa | - | 0.45 m/s, 294° | - | - |
| 1777981328 | 13.33° C | 88% | 1009.6 hPa | - | 0.89 m/s, 286° | - | - |
| 1777980728 | 13.33° C | 86% | 1009.4 hPa | - | 0.89 m/s, 204° | - | - |
| 1777980128 | 14.44° C | 86% | 1009.2 hPa | - | 0.89 m/s, 230° | - | - |
| 1777979528 | 14.44° C | 82% | 1009.2 hPa | - | 1.34 m/s, 166° | - | - |
| 1777978928 | 15.56° C | 76% | 1009 hPa | - | 0.89 m/s, 214° | - | - |
| 1777978328 | 16.67° C | 76% | 1008.8 hPa | - | 0.45 m/s, 270° | - | - |
| 1777977728 | 16.67° C | 74% | 1008.6 hPa | - | 0.45 m/s, 208° | - | - |
| 1777977128 | 16.67° C | 70% | 1008.6 hPa | - | 0.45 m/s, 188° | - | - |
| 1777976528 | 17.78° C | 68% | 1008.6 hPa | - | 0.45 m/s, 310° | - | - |
| 1777975928 | 17.78° C | 70% | 1008.6 hPa | - | 0.89 m/s, 304° | - | - |
| 1777975328 | 17.78° C | 68% | 1008.6 hPa | - | 0.89 m/s, 166° | - | - |
| 1777974728 | 17.78° C | 68% | 1008.6 hPa | - | 0.89 m/s, 302° | - | - |
| 1777974128 | 17.78° C | 70% | 1008.6 hPa | - | 0.89 m/s, 160° | - | - |
| 1777973528 | 17.78° C | 68% | 1008.8 hPa | - | 0.89 m/s, 160° | - | - |
| 1777972937 | 16.67° C | 74% | 1008.8 hPa | - | 0.45 m/s, 184° | - | - |
| 1777972332 | 16.67° C | 72% | 1008.8 hPa | - | 0.45 m/s, 200° | - | - |
| 1777971729 | 15.56° C | 78% | 1008.8 hPa | - | 0.45 m/s, 6° | - | - |
| 1777971128 | 15.56° C | 78% | 1009 hPa | - | 0.45 m/s, 156° | - | - |
| 1777970528 | 15.56° C | 82% | 1009 hPa | - | 0.45 m/s, 172° | - | - |
| 1777969928 | 14.44° C | 84% | 1009 hPa | - | 0 m/s | - | - |
| 1777969333 | 14.44° C | 84% | 1009 hPa | - | 0.45 m/s, 284° | - | - |
| 1777968728 | 14.44° C | 86% | 1009.2 hPa | - | 0.45 m/s, 332° | - | - |
| 1777968128 | 14.44° C | 86% | 1009 hPa | - | 0.45 m/s, 172° | - | - |
* Rain since midnight (hover to see other rain measurements)
** Current wind speed in m/s (hover to see current wind gust speed)